Time;durP1;ratioP1;P1;durP2;ratioP2;P2;SDS_P1;SDS_P2;PMS_P1;PMS_P2;Temp;Humidity;BMP_temperature;BMP_pressure;BME280_temperature;BME280_humidity;BME280_pressure;Samples;Min_cycle;Max_cycle;Signal;HPM_P1;HPM_P2
2022/07/01 00:00:17;;;;;;;6.57;6.22;;;;;;;13.84;100.00;101452.59;6019672;23;20098;-68
2022/07/01 00:02:44;;;;;;;5.03;4.82;;;;;;;14.10;100.00;101540.94;6024638;23;20414;-67
2022/07/01 00:05:11;;;;;;;6.85;6.55;;;;;;;14.08;100.00;101532.25;6026852;23;20030;-70
2022/07/01 00:07:37;;;;;;;4.85;4.65;;;;;;;14.09;100.00;101540.09;6035787;23;20037;-69
2022/07/01 00:10:05;;;;;;;5.30;5.03;;;;;;;14.01;100.00;101531.72;6038616;23;20398;-69
2022/07/01 00:12:31;;;;;;;5.10;4.90;;;;;;;14.05;100.00;101550.88;6018933;23;20081;-68
2022/07/01 00:14:57;;;;;;;5.00;4.80;;;;;;;14.02;100.00;101548.41;6028244;23;20019;-68
2022/07/01 00:17:24;;;;;;;5.30;5.10;;;;;;;14.06;100.00;101549.94;6021545;23;20528;-68
2022/07/01 00:19:50;;;;;;;4.90;4.70;;;;;;;13.96;100.00;101539.88;6033205;23;20257;-67
2022/07/01 00:22:17;;;;;;;5.30;5.00;;;;;;;13.94;100.00;101536.47;6030117;23;20516;-68
2022/07/01 00:24:46;;;;;;;5.05;4.75;;;;;;;13.60;100.00;101511.00;6032028;23;20355;-70
2022/07/01 00:27:13;;;;;;;6.47;6.18;;;;;;;13.91;100.00;101541.03;6028379;23;20473;-69
2022/07/01 00:29:39;;;;;;;4.85;4.65;;;;;;;13.49;100.00;101479.03;6029649;23;20164;-68
2022/07/01 00:32:07;;;;;;;6.75;6.45;;;;;;;12.88;100.00;101385.50;6023274;23;20026;-68
2022/07/01 00:34:34;;;;;;;5.10;4.90;;;;;;;13.92;100.00;101572.63;6024293;23;20019;-69
2022/07/01 00:37:01;;;;;;;5.57;5.38;;;;;;;13.54;100.00;101517.44;6029461;23;20349;-69
2022/07/01 00:39:31;;;;;;;5.35;5.15;;;;;;;13.92;100.00;101587.63;6042445;23;20599;-68
2022/07/01 00:42:00;;;;;;;5.25;4.95;;;;;;;13.86;100.00;101570.31;6032365;23;20448;-68
2022/07/01 00:44:26;;;;;;;4.85;4.65;;;;;;;13.94;100.00;101594.50;6034082;23;20029;-69
2022/07/01 00:46:53;;;;;;;5.40;5.10;;;;;;;13.98;100.00;101576.75;6032829;23;20516;-69
2022/07/01 00:49:20;;;;;;;5.10;4.90;;;;;;;13.75;100.00;101527.78;6037689;23;20019;-69
2022/07/01 00:51:47;;;;;;;4.90;4.70;;;;;;;13.61;100.00;101511.84;6033502;23;20034;-69
2022/07/01 00:54:14;;;;;;;4.80;4.60;;;;;;;13.92;100.00;101579.69;6038873;23;20042;-68
2022/07/01 00:56:40;;;;;;;5.00;4.80;;;;;;;13.90;100.00;101571.00;6021652;23;20017;-68
2022/07/01 00:59:07;;;;;;;5.53;5.32;;;;;;;13.86;100.00;101596.69;6039870;23;20046;-69
2022/07/01 01:01:34;;;;;;;4.70;4.50;;;;;;;13.93;100.00;101582.25;6026971;23;20526;-68
2022/07/01 01:04:00;;;;;;;4.90;4.70;;;;;;;13.98;100.00;101607.56;6000963;23;20025;-70
2022/07/01 01:06:27;;;;;;;4.88;4.68;;;;;;;13.98;100.00;101612.84;6021453;23;20200;-68
2022/07/01 01:08:54;;;;;;;5.32;5.05;;;;;;;13.95;100.00;101619.97;6039131;23;20102;-70
2022/07/01 01:11:20;;;;;;;5.70;5.50;;;;;;;13.98;100.00;101621.59;6020911;23;20173;-68
2022/07/01 01:13:47;;;;;;;4.68;4.47;;;;;;;14.02;100.00;101625.78;5994786;23;20173;-68
2022/07/01 01:16:22;;;;;;;6.53;6.22;;;;;;;14.05;100.00;101643.25;6024936;23;20021;-69
2022/07/01 01:18:49;;;;;;;4.65;4.45;;;;;;;13.61;100.00;101565.47;6026438;23;20170;-70
2022/07/01 01:21:15;;;;;;;6.32;6.03;;;;;;;13.48;100.00;101562.56;6026872;23;20328;-68
2022/07/01 01:23:42;;;;;;;4.90;4.70;;;;;;;13.96;100.00;101645.44;6001994;23;20031;-70
2022/07/01 01:26:20;;;;;;;5.85;5.57;;;;;;;13.94;100.00;101634.09;6028064;23;20042;-69
2022/07/01 01:28:47;;;;;;;5.28;4.97;;;;;;;13.88;100.00;101642.31;6027360;23;20043;-69
2022/07/01 01:31:14;;;;;;;6.05;5.75;;;;;;;13.53;100.00;101571.13;6026428;23;20106;-68
2022/07/01 01:33:41;;;;;;;4.90;4.70;;;;;;;13.77;100.00;101618.25;6028384;23;20034;-67
2022/07/01 01:36:08;;;;;;;6.20;5.90;;;;;;;13.86;100.00;101651.25;5992480;23;20031;-68
2022/07/01 01:38:36;;;;;;;4.93;4.72;;;;;;;13.84;100.00;101661.03;6023220;23;20094;-69
2022/07/01 01:41:03;;;;;;;4.85;4.65;;;;;;;13.80;100.00;101657.69;6031678;23;20062;-69
2022/07/01 01:43:34;;;;;;;5.55;5.18;;;;;;;13.39;100.00;101588.53;5994845;23;20086;-69
2022/07/01 01:46:01;;;;;;;4.97;4.78;;;;;;;13.31;100.00;101579.25;6032633;23;20244;-68
2022/07/01 01:48:29;;;;;;;4.75;4.55;;;;;;;13.50;100.00;101613.47;6024067;23;20038;-69
2022/07/01 01:50:56;;;;;;;4.70;4.50;;;;;;;13.29;100.00;101585.47;6004132;23;20481;-67
2022/07/01 01:53:23;;;;;;;5.57;5.30;;;;;;;13.35;100.00;101596.63;6021711;23;20460;-69
2022/07/01 01:55:50;;;;;;;4.80;4.60;;;;;;;13.66;100.00;101647.84;6033193;23;20034;-69
2022/07/01 01:58:16;;;;;;;6.32;6.03;;;;;;;13.67;100.00;101636.38;6032581;23;20027;-69
2022/07/01 02:00:42;;;;;;;5.18;4.90;;;;;;;12.93;100.00;101502.91;6036938;23;20094;-69
2022/07/01 02:03:09;;;;;;;6.00;5.72;;;;;;;13.64;100.00;101633.88;6024806;23;20330;-69
2022/07/01 02:05:36;;;;;;;5.30;4.90;;;;;;;13.72;100.00;101655.44;6016349;23;20018;-67
2022/07/01 02:08:03;;;;;;;5.90;5.38;;;;;;;13.54;100.00;101620.28;6040875;23;20084;-70
2022/07/01 02:10:29;;;;;;;4.80;4.60;;;;;;;13.61;100.00;101654.25;6031755;23;20114;-68
2022/07/01 02:12:56;;;;;;;5.40;5.10;;;;;;;13.60;100.00;101663.13;6020396;23;20041;-68
2022/07/01 02:15:22;;;;;;;5.78;5.50;;;;;;;13.54;100.00;101654.56;6013117;23;20050;-68
2022/07/01 02:17:49;;;;;;;5.43;5.13;;;;;;;13.20;100.00;101613.16;5997220;23;20322;-69
2022/07/01 02:20:16;;;;;;;6.20;5.90;;;;;;;13.55;100.00;101674.75;6029825;23;20098;-68
2022/07/01 02:22:42;;;;;;;5.30;5.00;;;;;;;13.48;100.00;101660.16;6031529;23;20027;-69
2022/07/01 02:25:09;;;;;;;6.47;6.18;;;;;;;13.04;100.00;101585.84;6023431;23;20101;-68
2022/07/01 02:27:36;;;;;;;4.70;4.50;;;;;;;13.59;100.00;101687.78;6029214;23;20078;-68
2022/07/01 02:30:05;;;;;;;4.78;4.57;;;;;;;13.35;100.00;101653.78;6030049;23;20019;-70
2022/07/01 02:32:32;;;;;;;4.70;4.50;;;;;;;13.56;100.00;101720.44;6024681;23;20022;-68
2022/07/01 02:34:59;;;;;;;5.07;4.85;;;;;;;13.55;100.00;101718.72;6021943;23;20028;-69
2022/07/01 02:37:27;;;;;;;4.97;4.78;;;;;;;13.53;100.00;101717.94;6023613;23;20077;-69
2022/07/01 02:39:53;;;;;;;5.10;4.90;;;;;;;13.54;100.00;101723.13;6037120;23;20026;-69
2022/07/01 02:42:22;;;;;;;4.90;4.70;;;;;;;13.60;100.00;101727.28;6025826;23;20101;-69
2022/07/01 02:44:49;;;;;;;5.22;5.03;;;;;;;13.60;100.00;101739.59;6034372;23;20615;-69
2022/07/01 02:47:15;;;;;;;6.03;5.72;;;;;;;13.35;100.00;101688.06;6019857;23;20376;-68
2022/07/01 02:49:42;;;;;;;4.70;4.50;;;;;;;13.35;100.00;101683.63;6028612;23;20026;-69
2022/07/01 02:52:08;;;;;;;6.20;5.90;;;;;;;13.25;100.00;101687.59;6022966;23;20491;-70
2022/07/01 02:54:35;;;;;;;4.70;4.50;;;;;;;13.61;100.00;101736.91;6029488;23;20054;-68
2022/07/01 02:57:03;;;;;;;4.72;4.53;;;;;;;13.03;100.00;101676.34;6016130;23;20277;-65
2022/07/01 02:59:30;;;;;;;4.72;4.53;;;;;;;13.60;100.00;101790.56;6044333;23;20015;-70
2022/07/01 03:01:56;;;;;;;5.30;5.00;;;;;;;13.44;100.00;101773.75;6027598;23;20031;-70
2022/07/01 03:04:23;;;;;;;4.60;4.40;;;;;;;13.61;100.00;101778.22;6009805;23;20023;-68
2022/07/01 03:06:49;;;;;;;5.15;4.85;;;;;;;13.59;100.00;101765.13;6022358;23;20096;-68
2022/07/01 03:09:16;;;;;;;6.65;6.35;;;;;;;13.29;100.00;101717.28;6036163;23;20057;-68
2022/07/01 03:11:42;;;;;;;5.00;4.80;;;;;;;13.57;100.00;101788.94;6025109;23;20051;-69
2022/07/01 03:14:09;;;;;;;6.18;5.88;;;;;;;13.56;100.00;101758.19;6035935;23;20352;-69
2022/07/01 03:16:35;;;;;;;4.63;4.43;;;;;;;13.55;100.00;101779.38;6028701;23;20033;-69
2022/07/01 03:19:02;;;;;;;4.80;4.60;;;;;;;12.57;100.00;101642.47;6034257;23;20304;-70
2022/07/01 03:21:28;;;;;;;4.90;4.70;;;;;;;13.47;100.00;101776.25;6041530;23;20496;-68
2022/07/01 03:23:55;;;;;;;5.07;4.60;;;;;;;13.29;100.00;101765.66;6035993;23;20405;-69
2022/07/01 03:26:22;;;;;;;5.00;4.80;;;;;;;13.38;100.00;101752.97;6028362;23;20392;-71
2022/07/01 03:28:48;;;;;;;4.80;4.60;;;;;;;13.35;100.00;101759.25;6032490;23;20326;-69
2022/07/01 03:31:14;;;;;;;6.28;5.97;;;;;;;13.30;100.00;101748.03;6017809;23;20444;-68
2022/07/01 03:33:41;;;;;;;4.72;4.53;;;;;;;13.30;100.00;101745.41;6034772;23;20030;-69
2022/07/01 03:36:08;;;;;;;5.85;5.57;;;;;;;13.24;100.00;101725.41;5994309;23;20311;-70
2022/07/01 03:38:35;;;;;;;4.70;4.50;;;;;;;13.24;100.00;101754.41;6036354;23;20304;-69
2022/07/01 03:41:02;;;;;;;4.93;4.72;;;;;;;13.27;100.00;101740.22;6027424;23;20031;-73
2022/07/01 03:43:28;;;;;;;4.78;4.57;;;;;;;13.25;100.00;101786.91;5994305;23;20003;-70
2022/07/01 03:45:55;;;;;;;4.70;4.47;;;;;;;13.25;100.00;101771.09;6027424;23;20036;-70
2022/07/01 03:48:22;;;;;;;5.50;5.30;;;;;;;13.25;100.00;101777.22;6020851;23;20097;-70
2022/07/01 03:50:48;;;;;;;4.80;4.60;;;;;;;13.31;100.00;101789.28;6023299;23;20198;-69
2022/07/01 03:56:00;;;;;;;4.80;4.60;;;;;;;13.31;100.00;101790.16;6023117;23;20023;-74
2022/07/01 03:58:26;;;;;;;5.20;5.00;;;;;;;13.33;100.00;101776.88;6020574;23;20019;-70
2022/07/01 04:00:53;;;;;;;4.70;4.50;;;;;;;12.59;100.00;101659.03;6028654;23;20373;-70
2022/07/01 04:03:19;;;;;;;5.72;5.50;;;;;;;12.97;100.00;101711.75;6024247;23;20452;-72
2022/07/01 04:05:46;;;;;;;4.88;4.68;;;;;;;13.43;100.00;101775.56;6023736;23;20077;-70
2022/07/01 04:08:14;;;;;;;6.10;5.80;;;;;;;13.15;100.00;101731.16;6026217;23;20031;-72
2022/07/01 04:10:41;;;;;;;4.68;4.47;;;;;;;13.48;100.00;101793.78;6026019;23;20017;-67
2022/07/01 04:13:07;;;;;;;6.15;5.85;;;;;;;13.12;100.00;101745.28;6006626;23;20030;-71
2022/07/01 04:15:54;;;;;;;4.70;4.50;;;;;;;13.49;100.00;101812.19;6023458;23;20106;-72
2022/07/01 04:18:21;;;;;;;5.45;5.20;;;;;;;13.06;100.00;101736.81;6029816;23;20023;-70
2022/07/01 04:22:32;;;;;;;4.70;4.50;;;;;;;13.52;100.00;101819.09;6031875;23;20025;-72
2022/07/01 04:23:34;;;;;;;5.25;4.95;;;;;;;13.57;100.00;101839.06;6029009;23;20106;-69
2022/07/01 04:26:01;;;;;;;4.80;4.60;;;;;;;13.42;100.00;101784.38;6035848;23;20042;-72
2022/07/01 04:28:47;;;;;;;4.43;4.22;;;;;;;13.43;100.00;101767.66;6030040;23;20280;-70
2022/07/01 04:31:14;;;;;;;6.05;5.75;;;;;;;13.29;100.00;101736.66;6023051;23;20066;-70
2022/07/01 04:33:40;;;;;;;4.75;4.55;;;;;;;13.75;100.00;101804.81;6028029;23;20086;-70
2022/07/01 04:36:07;;;;;;;5.55;5.35;;;;;;;13.78;100.00;101809.94;5996805;23;20229;-69
2022/07/01 04:38:34;;;;;;;4.70;4.50;;;;;;;13.80;100.00;101786.97;6008648;23;20085;-70
2022/07/01 04:43:46;;;;;;;4.90;4.70;;;;;;;13.42;100.00;101760.66;6035699;23;20015;-70
2022/07/01 04:46:12;;;;;;;6.10;5.80;;;;;;;13.55;100.00;101771.47;6022231;23;20647;-73
2022/07/01 04:48:40;;;;;;;4.80;4.60;;;;;;;13.81;100.00;101807.19;6028858;23;20090;-71
2022/07/01 04:51:06;;;;;;;5.15;4.95;;;;;;;13.54;100.00;101746.03;6021812;23;20456;-72
2022/07/01 04:53:33;;;;;;;4.72;4.53;;;;;;;13.84;100.00;101795.59;6026526;23;20027;-69
2022/07/01 04:55:59;;;;;;;5.20;4.90;;;;;;;13.60;100.00;101763.34;6028454;23;20459;-65
2022/07/01 04:58:26;;;;;;;4.82;4.63;;;;;;;13.79;100.00;101795.84;6030862;23;20354;-71
2022/07/01 05:00:52;;;;;;;4.80;4.60;;;;;;;13.89;100.00;101817.34;6023579;23;20023;-70
2022/07/01 05:03:19;;;;;;;6.00;5.70;;;;;;;13.85;100.00;101792.03;6030916;23;20021;-71
2022/07/01 05:05:45;;;;;;;4.90;4.70;;;;;;;13.83;100.00;101767.50;6023513;23;20032;-70
2022/07/01 05:08:12;;;;;;;6.55;6.25;;;;;;;13.34;100.00;101697.72;6031269;23;20615;-75
2022/07/01 05:10:38;;;;;;;4.70;4.50;;;;;;;13.94;100.00;101807.44;6029551;23;20550;-69
2022/07/01 05:13:07;;;;;;;5.40;5.18;;;;;;;13.87;100.00;101742.66;6018797;23;20089;-67
2022/07/01 05:15:33;;;;;;;4.65;4.45;;;;;;;13.96;100.00;101739.59;6028271;23;20090;-66
2022/07/01 05:23:35;;;;;;;4.95;4.75;;;;;;;13.77;100.00;101700.06;6024862;23;20023;-65
2022/07/01 05:26:03;;;;;;;4.82;4.63;;;;;;;14.05;100.00;101707.47;5989010;23;20043;-66
2022/07/01 05:28:29;;;;;;;4.88;4.68;;;;;;;14.18;100.00;101715.59;6019538;23;20010;-66
2022/07/01 05:30:56;;;;;;;5.40;5.10;;;;;;;14.35;100.00;101727.94;6004894;23;20038;-66
2022/07/01 05:33:26;;;;;;;5.57;5.38;;;;;;;14.03;100.00;101672.38;6016309;23;20037;-66
2022/07/01 05:35:53;;;;;;;4.95;4.75;;;;;;;14.66;100.00;101739.59;5998248;23;20075;-67
2022/07/01 05:38:21;;;;;;;4.75;4.55;;;;;;;14.85;100.00;101745.59;6002375;23;20085;-66
2022/07/01 05:40:47;;;;;;;5.15;4.85;;;;;;;14.79;100.00;101714.19;6011809;23;20150;-66
2022/07/01 05:43:13;;;;;;;4.90;4.70;;;;;;;14.85;100.00;101744.72;6022412;23;20065;-66
2022/07/01 05:45:40;;;;;;;4.90;4.70;;;;;;;14.98;100.00;101735.22;5999809;23;20441;-66
2022/07/01 05:48:07;;;;;;;6.47;6.18;;;;;;;15.01;100.00;101729.75;6016561;23;20026;-72
2022/07/01 05:50:34;;;;;;;5.10;4.90;;;;;;;15.23;100.00;101740.00;6019070;23;20027;-67
2022/07/01 05:53:00;;;;;;;5.18;4.95;;;;;;;15.12;100.00;101760.91;6028852;23;20091;-75
2022/07/01 05:55:27;;;;;;;4.88;4.68;;;;;;;15.24;100.00;101746.19;6018599;23;21071;-66
2022/07/01 05:57:54;;;;;;;4.90;4.70;;;;;;;15.30;100.00;101759.91;6027565;23;20452;-66
2022/07/01 06:00:20;;;;;;;5.72;5.53;;;;;;;15.35;100.00;101747.28;6025981;23;20053;-66
2022/07/01 06:02:47;;;;;;;4.93;4.72;;;;;;;15.23;100.00;101739.16;6023680;23;20102;-66
2022/07/01 06:05:13;;;;;;;6.70;6.30;;;;;;;15.36;100.00;101730.47;6012947;23;20456;-66
2022/07/01 06:07:41;;;;;;;5.25;4.95;;;;;;;15.02;100.00;101660.09;6002090;23;20027;-66
2022/07/01 06:10:11;;;;;;;6.22;5.93;;;;;;;15.70;100.00;101735.66;6035714;23;20102;-72
2022/07/01 06:12:39;;;;;;;5.10;4.90;;;;;;;15.25;100.00;101632.34;6001359;23;20023;-66
2022/07/01 06:15:07;;;;;;;6.07;5.80;;;;;;;16.02;100.00;101744.41;6018842;23;20026;-72
2022/07/01 06:17:38;;;;;;;5.20;5.00;;;;;;;16.28;100.00;101737.56;6017657;23;20101;-71
2022/07/01 06:20:07;;;;;;;6.13;5.85;;;;;;;16.25;99.43;101699.81;6002485;23;20033;-65
2022/07/01 06:22:33;;;;;;;5.15;4.95;;;;;;;16.85;98.49;101760.66;6026123;23;20093;-66
2022/07/01 06:25:01;;;;;;;5.07;4.88;;;;;;;16.95;96.13;101750.34;6009744;23;20014;-66
2022/07/01 06:27:28;;;;;;;5.22;5.03;;;;;;;17.08;95.38;101753.09;6024294;23;20031;-66
2022/07/01 06:29:54;;;;;;;5.13;4.93;;;;;;;17.17;92.85;101775.53;6014483;23;20381;-72
2022/07/01 06:32:21;;;;;;;6.07;5.78;;;;;;;17.08;92.66;101761.88;6020961;23;20022;-70
2022/07/01 06:34:52;;;;;;;5.30;5.10;;;;;;;17.04;93.58;101760.38;6015814;23;20105;-72
2022/07/01 06:37:20;;;;;;;7.40;7.00;;;;;;;16.95;93.06;101755.63;6015975;23;20019;-72
2022/07/01 06:39:46;;;;;;;5.00;4.80;;;;;;;17.12;94.00;101752.78;6024056;23;20039;-67
2022/07/01 06:42:13;;;;;;;7.07;6.78;;;;;;;17.02;90.00;101750.78;6016611;23;20017;-71
2022/07/01 06:44:39;;;;;;;5.18;4.97;;;;;;;16.94;90.41;101764.56;6017074;23;20034;-66
2022/07/01 06:47:06;;;;;;;6.32;6.03;;;;;;;16.53;93.39;101713.09;6024465;23;20015;-67
2022/07/01 06:49:33;;;;;;;5.50;5.20;;;;;;;16.87;92.92;101779.13;6021291;23;20106;-71
2022/07/01 06:51:59;;;;;;;5.10;4.90;;;;;;;16.58;92.18;101725.19;6025099;23;20419;-69
2022/07/01 06:54:26;;;;;;;5.18;4.97;;;;;;;16.68;94.20;101721.06;6021922;23;22145;-74
2022/07/01 06:56:52;;;;;;;5.20;5.00;;;;;;;17.26;92.65;101782.88;5997295;23;20086;-72
2022/07/01 06:59:18;;;;;;;6.47;6.18;;;;;;;17.30;92.70;101744.63;6024526;23;20374;-71
2022/07/01 07:01:45;;;;;;;6.07;5.65;;;;;;;17.71;89.10;101791.53;6016778;23;20027;-72
2022/07/01 07:04:11;;;;;;;6.30;6.00;;;;;;;17.76;84.08;101797.41;5992399;23;20031;-71
2022/07/01 07:06:38;;;;;;;5.18;4.97;;;;;;;16.64;86.49;101658.59;6021776;23;20055;-71
2022/07/01 07:09:04;;;;;;;5.75;5.47;;;;;;;17.30;85.18;101795.88;6010668;23;20101;-74
2022/07/01 07:11:31;;;;;;;5.22;5.03;;;;;;;17.20;85.24;101792.09;6026045;23;20337;-73
2022/07/01 07:13:57;;;;;;;5.25;5.05;;;;;;;17.00;86.72;101768.59;6035574;23;20018;-68
2022/07/01 07:16:26;;;;;;;5.78;5.55;;;;;;;16.99;89.04;101773.06;6009049;23;20392;-73
2022/07/01 07:18:55;;;;;;;5.60;5.30;;;;;;;16.75;89.99;101780.69;6020505;23;20018;-73
2022/07/01 07:21:21;;;;;;;5.68;5.38;;;;;;;16.40;89.52;101727.16;6014235;23;20106;-68
2022/07/01 07:23:48;;;;;;;5.18;4.97;;;;;;;17.26;89.59;101789.06;6021974;23;20086;-72
2022/07/01 07:26:14;;;;;;;6.88;6.55;;;;;;;17.29;86.62;101751.72;6009467;23;20106;-68
2022/07/01 07:28:41;;;;;;;5.53;5.32;;;;;;;17.85;85.86;101812.75;6028342;23;20494;-74
2022/07/01 07:31:10;;;;;;;7.10;6.70;;;;;;;18.05;82.62;101808.78;6001859;23;20020;-65
2022/07/01 07:33:36;;;;;;;5.85;5.55;;;;;;;18.08;82.52;101799.75;6025338;23;20336;-69
2022/07/01 07:36:03;;;;;;;5.40;5.20;;;;;;;18.21;82.80;101792.66;5989112;23;20499;-73
2022/07/01 07:38:29;;;;;;;5.57;5.28;;;;;;;18.07;80.03;101761.72;6024226;23;20110;-67
2022/07/01 07:40:56;;;;;;;5.82;5.53;;;;;;;18.17;80.76;101799.16;6019657;23;20034;-70
2022/07/01 07:43:25;;;;;;;6.72;5.82;;;;;;;18.44;82.55;101823.03;6026462;23;20472;-71
2022/07/01 07:45:52;;;;;;;6.00;5.70;;;;;;;18.79;81.11;101813.59;6029727;23;20022;-66
2022/07/01 07:48:18;;;;;;;6.93;6.60;;;;;;;18.60;79.73;101777.66;6027052;23;20034;-71
2022/07/01 07:50:47;;;;;;;5.68;5.38;;;;;;;18.64;78.50;101803.06;6025487;23;20292;-70
2022/07/01 07:53:13;;;;;;;6.85;6.55;;;;;;;19.03;77.79;101805.75;6018347;23;20073;-72
2022/07/01 07:55:40;;;;;;;5.82;5.53;;;;;;;19.37;74.19;101819.31;6021958;23;20018;-66
2022/07/01 07:58:06;;;;;;;6.10;5.70;;;;;;;19.28;74.30;101781.75;6021761;23;20027;-70
2022/07/01 08:00:33;;;;;;;5.80;5.50;;;;;;;19.52;73.82;101845.69;6023751;23;20014;-67
2022/07/01 08:03:06;;;;;;;6.60;6.25;;;;;;;19.45;73.75;101836.44;6031224;23;20026;-65
2022/07/01 08:05:33;;;;;;;5.57;5.32;;;;;;;19.20;75.23;101832.00;6030623;23;20289;-67
2022/07/01 08:07:59;;;;;;;5.60;5.30;;;;;;;19.32;75.49;101843.59;6030146;23;20334;-67
2022/07/01 08:10:26;;;;;;;5.65;5.35;;;;;;;18.79;74.19;101795.84;6027788;23;20131;-73
2022/07/01 08:12:52;;;;;;;5.70;5.40;;;;;;;19.30;75.07;101843.72;6007751;23;20075;-67
2022/07/01 08:15:19;;;;;;;8.80;8.25;;;;;;;19.58;74.60;101848.88;6017510;23;20027;-67
2022/07/01 08:17:45;;;;;;;5.40;5.20;;;;;;;19.47;71.78;101794.59;6000275;23;20395;-68
2022/07/01 08:20:12;;;;;;;6.93;6.53;;;;;;;19.31;72.87;101778.88;6024468;23;20035;-68
2022/07/01 08:22:38;;;;;;;5.60;5.40;;;;;;;19.49;73.45;101818.44;6029408;23;20029;-67
2022/07/01 08:25:05;;;;;;;5.93;5.68;;;;;;;18.12;73.56;101753.44;5993457;23;20140;-70
2022/07/01 08:27:31;;;;;;;6.20;5.90;;;;;;;18.27;78.93;101805.53;6026040;23;20086;-66
2022/07/01 08:29:58;;;;;;;5.75;5.45;;;;;;;18.37;78.73;101808.44;6020267;23;20015;-69
2022/07/01 08:32:26;;;;;;;5.70;5.40;;;;;;;18.62;77.93;101818.28;5999950;23;21005;-66
2022/07/01 08:34:53;;;;;;;6.07;5.78;;;;;;;18.62;78.35;101823.59;6029019;23;20037;-67
2022/07/01 08:37:19;;;;;;;7.03;6.65;;;;;;;18.84;78.85;101822.13;6017974;23;20166;-67
2022/07/01 08:39:46;;;;;;;5.90;5.60;;;;;;;18.53;79.87;101834.84;6010443;23;20035;-72
2022/07/01 08:42:12;;;;;;;7.63;7.00;;;;;;;18.68;78.81;101839.13;6019267;23;20448;-73
2022/07/01 08:44:39;;;;;;;5.25;5.05;;;;;;;18.52;78.92;101827.81;5997258;23;20015;-67
2022/07/01 08:47:12;;;;;;;6.03;5.72;;;;;;;18.71;79.64;101843.38;6023093;23;20026;-71
2022/07/01 08:49:38;;;;;;;5.57;5.28;;;;;;;19.07;77.46;101842.66;6023910;23;20023;-67
2022/07/01 08:52:05;;;;;;;5.57;5.28;;;;;;;19.06;75.68;101825.00;5997168;23;20097;-67
2022/07/01 08:54:31;;;;;;;6.38;6.07;;;;;;;19.29;68.76;101865.97;6042443;23;20614;-68
2022/07/01 08:56:58;;;;;;;5.30;5.10;;;;;;;19.51;67.32;101861.78;6039379;23;20021;-72
2022/07/01 08:59:26;;;;;;;5.45;5.18;;;;;;;19.22;67.02;101854.03;6003473;23;20270;-71
2022/07/01 09:02:00;;;;;;;5.55;5.30;;;;;;;19.37;68.56;101844.13;6026484;23;20050;-71
2022/07/01 09:04:28;;;;;;;5.57;5.38;;;;;;;19.60;67.53;101861.09;6003375;23;20035;-68
2022/07/01 09:07:05;;;;;;;5.78;5.35;;;;;;;20.06;62.83;101880.91;6021889;23;20543;-68
2022/07/01 09:09:40;;;;;;;5.40;5.10;;;;;;;19.36;67.47;101821.13;6034715;23;20015;-68
2022/07/01 09:12:07;;;;;;;5.63;5.40;;;;;;;20.43;65.76;101856.88;5997580;23;20023;-75
2022/07/01 09:14:35;;;;;;;5.43;5.18;;;;;;;20.82;63.41;101854.81;6003655;23;20107;-74
2022/07/01 09:17:06;;;;;;;5.30;5.10;;;;;;;20.55;63.94;101845.25;6000807;23;20047;-74
2022/07/01 09:19:37;;;;;;;5.30;5.10;;;;;;;20.33;63.20;101852.22;6023756;23;20030;-72
2022/07/01 09:22:11;;;;;;;6.80;6.50;;;;;;;20.14;64.92;101862.53;5992466;23;20115;-68
2022/07/01 09:24:42;;;;;;;5.70;5.40;;;;;;;20.21;65.50;101826.47;5966693;23;20028;-68
2022/07/01 09:27:16;;;;;;;6.68;6.38;;;;;;;19.81;66.27;101770.84;5989510;23;20031;-67
2022/07/01 09:29:45;;;;;;;5.70;5.40;;;;;;;20.27;65.47;101803.84;5996474;23;20031;-67
2022/07/01 09:32:13;;;;;;;6.60;6.30;;;;;;;20.72;63.12;101849.31;5997048;23;20729;-68
2022/07/01 09:34:42;;;;;;;5.60;5.30;;;;;;;20.58;60.48;101849.50;5999976;23;20092;-68
2022/07/01 09:37:12;;;;;;;6.95;6.65;;;;;;;20.50;61.37;101866.94;6018482;23;20078;-68
2022/07/01 09:39:47;;;;;;;5.82;5.53;;;;;;;20.82;60.86;101869.00;5994995;23;20019;-67
2022/07/01 09:42:15;;;;;;;6.85;6.55;;;;;;;19.78;61.08;101708.94;5989011;23;20398;-67
2022/07/01 09:45:14;;;;;;;5.40;5.20;;;;;;;20.66;61.49;101850.63;5993693;23;20033;-72
2022/07/01 09:47:44;;;;;;;5.25;5.05;;;;;;;20.86;59.03;101853.59;5979065;23;20015;-67
2022/07/01 09:50:11;;;;;;;7.45;7.10;;;;;;;21.08;56.74;101885.66;5985935;23;20027;-67
2022/07/01 09:52:38;;;;;;;5.93;5.63;;;;;;;21.16;56.05;101839.66;5996356;23;20536;-66
2022/07/01 09:55:07;;;;;;;5.85;5.60;;;;;;;21.72;54.88;101849.47;5992184;23;20034;-75
2022/07/01 09:57:34;;;;;;;5.40;5.20;;;;;;;21.53;56.00;101866.16;5994247;23;20075;-73
2022/07/01 10:00:00;;;;;;;5.32;5.13;;;;;;;21.97;56.96;101860.84;5993425;23;20704;-69
2022/07/01 10:02:31;;;;;;;5.70;5.50;;;;;;;21.52;53.69;101832.41;5960040;23;20162;-67
2022/07/01 10:05:01;;;;;;;5.57;5.28;;;;;;;21.94;53.26;101874.47;6019410;23;20015;-71
2022/07/01 10:08:15;;;;;;;5.63;5.40;;;;;;;21.74;53.82;101860.06;5982665;23;20008;-69
2022/07/01 10:11:19;;;;;;;5.55;5.35;;;;;;;21.85;52.90;101870.69;6012907;23;20024;-71
2022/07/01 10:13:46;;;;;;;5.57;5.20;;;;;;;21.35;54.55;101867.56;6016914;23;20089;-70
2022/07/01 10:16:20;;;;;;;6.63;6.32;;;;;;;21.29;54.72;101818.22;6019892;23;20065;-73
2022/07/01 10:18:46;;;;;;;5.57;5.38;;;;;;;21.61;51.67;101854.84;6023702;23;20076;-73
2022/07/01 10:21:30;;;;;;;6.95;6.65;;;;;;;21.81;53.45;101861.25;6028923;23;20182;-67
2022/07/01 10:24:13;;;;;;;5.72;5.50;;;;;;;22.46;50.71;101876.34;6027199;23;20062;-72
2022/07/01 10:26:41;;;;;;;5.78;5.47;;;;;;;22.32;49.95;101875.84;6001479;23;20011;-67
2022/07/01 10:29:36;;;;;;;6.78;6.32;;;;;;;22.33;50.87;101866.81;6023912;23;20046;-67
2022/07/01 10:32:25;;;;;;;5.70;5.40;;;;;;;21.85;52.33;101852.00;6023329;23;20038;-67
2022/07/01 10:35:11;;;;;;;6.70;6.40;;;;;;;21.74;52.21;101860.91;6022425;23;20028;-67
2022/07/01 10:37:58;;;;;;;5.70;5.40;;;;;;;21.22;54.37;101849.88;5994725;23;20140;-73
2022/07/01 10:40:44;;;;;;;6.45;6.15;;;;;;;21.01;55.99;101848.91;5998209;23;20464;-73
2022/07/01 10:43:14;;;;;;;5.10;4.90;;;;;;;20.92;56.19;101829.94;6031018;23;20097;-66
2022/07/01 10:46:01;;;;;;;5.97;5.60;;;;;;;21.19;54.71;101842.13;6016040;23;20085;-67
2022/07/01 10:48:31;;;;;;;5.68;5.47;;;;;;;21.21;54.53;101861.53;6022809;23;20082;-67
2022/07/01 10:50:58;;;;;;;5.18;4.97;;;;;;;20.86;55.48;101797.56;6004972;23;20107;-70
2022/07/01 10:53:44;;;;;;;5.78;5.47;;;;;;;21.56;55.33;101844.53;6020075;23;20087;-70
2022/07/01 10:56:16;;;;;;;6.07;5.78;;;;;;;21.74;51.84;101865.41;6020267;23;20086;-74
2022/07/01 10:58:42;;;;;;;5.55;5.32;;;;;;;21.53;52.00;101796.72;6022877;23;20556;-73
2022/07/01 11:01:09;;;;;;;6.78;6.47;;;;;;;21.85;51.77;101844.84;6011764;23;20030;-72
2022/07/01 11:03:39;;;;;;;5.30;5.10;;;;;;;21.56;51.30;101822.31;6016518;23;20259;-65
2022/07/01 11:06:07;;;;;;;5.90;5.60;;;;;;;21.58;51.28;101797.19;6012754;23;20314;-69
2022/07/01 11:08:33;;;;;;;5.22;5.03;;;;;;;21.77;48.91;101809.88;6025333;23;20015;-69
2022/07/01 11:11:04;;;;;;;5.43;5.22;;;;;;;22.39;48.93;101852.94;6018605;23;20018;-68
2022/07/01 11:13:32;;;;;;;5.45;5.20;;;;;;;23.09;49.07;101860.31;6017242;23;20195;-68
2022/07/01 11:15:59;;;;;;;5.60;5.40;;;;;;;22.61;47.20;101818.03;6020838;23;20449;-75
2022/07/01 11:18:26;;;;;;;5.93;5.65;;;;;;;22.23;48.10;101862.22;5991529;23;20046;-72
2022/07/01 11:21:02;;;;;;;5.53;5.25;;;;;;;22.18;49.36;101845.69;6024025;23;20227;-68
2022/07/01 11:23:29;;;;;;;5.50;5.30;;;;;;;22.12;48.69;101827.50;6011179;23;20015;-68
2022/07/01 11:25:55;;;;;;;5.60;5.40;;;;;;;22.09;49.28;101833.97;6024386;23;20029;-69
2022/07/01 11:28:22;;;;;;;5.35;5.15;;;;;;;22.63;47.77;101833.94;6020735;23;20094;-68
2022/07/01 11:30:57;;;;;;;5.60;5.40;;;;;;;23.12;46.80;101836.94;6019532;23;20015;-68
2022/07/01 11:33:23;;;;;;;5.70;5.45;;;;;;;21.78;47.46;101798.22;6006966;23;20030;-68
2022/07/01 11:41:24;;;;;;;6.82;6.53;;;;;;;22.53;44.70;101816.97;6008491;23;20373;-72
2022/07/01 11:43:52;;;;;;;5.32;5.13;;;;;;;22.41;45.97;101805.50;6044288;23;20019;-72